sensor_id;sensor_type;location;lat;lon;timestamp;P1;durP1;ratioP1;P2;durP2;ratioP2
10305;SDS011;5198;52.382;9.020;2024-03-29T00:03:52;5.37;;;0.90;;
10305;SDS011;5198;52.382;9.020;2024-03-29T00:07:54;3.10;;;1.10;;
10305;SDS011;5198;52.382;9.020;2024-03-29T00:11:56;2.23;;;0.93;;
10305;SDS011;5198;52.382;9.020;2024-03-29T00:15:58;2.43;;;0.97;;
10305;SDS011;5198;52.382;9.020;2024-03-29T00:20:03;5.80;;;1.00;;
10305;SDS011;5198;52.382;9.020;2024-03-29T00:24:07;1.73;;;0.93;;
10305;SDS011;5198;52.382;9.020;2024-03-29T00:28:09;4.53;;;1.40;;
10305;SDS011;5198;52.382;9.020;2024-03-29T00:32:11;1.90;;;0.88;;
10305;SDS011;5198;52.382;9.020;2024-03-29T00:36:15;2.67;;;0.93;;
10305;SDS011;5198;52.382;9.020;2024-03-29T00:40:17;4.53;;;1.50;;
10305;SDS011;5198;52.382;9.020;2024-03-29T00:44:20;3.92;;;1.88;;
10305;SDS011;5198;52.382;9.020;2024-03-29T00:48:22;2.97;;;2.67;;
10305;SDS011;5198;52.382;9.020;2024-03-29T00:52:27;2.78;;;1.90;;
10305;SDS011;5198;52.382;9.020;2024-03-29T00:56:29;3.20;;;1.40;;
10305;SDS011;5198;52.382;9.020;2024-03-29T01:00:31;1.07;;;0.80;;
10305;SDS011;5198;52.382;9.020;2024-03-29T01:04:34;2.53;;;1.33;;
10305;SDS011;5198;52.382;9.020;2024-03-29T01:08:39;1.73;;;0.90;;
10305;SDS011;5198;52.382;9.020;2024-03-29T01:12:41;3.70;;;1.43;;
10305;SDS011;5198;52.382;9.020;2024-03-29T01:16:43;6.03;;;0.73;;
10305;SDS011;5198;52.382;9.020;2024-03-29T01:20:45;3.03;;;1.27;;
10305;SDS011;5198;52.382;9.020;2024-03-29T01:24:50;4.57;;;1.60;;
10305;SDS011;5198;52.382;9.020;2024-03-29T01:28:52;4.27;;;1.87;;
10305;SDS011;5198;52.382;9.020;2024-03-29T01:32:55;4.70;;;1.77;;
10305;SDS011;5198;52.382;9.020;2024-03-29T01:36:57;5.37;;;1.47;;
10305;SDS011;5198;52.382;9.020;2024-03-29T01:41:02;2.83;;;1.77;;
10305;SDS011;5198;52.382;9.020;2024-03-29T01:45:04;3.73;;;1.77;;
10305;SDS011;5198;52.382;9.020;2024-03-29T01:49:07;2.07;;;1.37;;
10305;SDS011;5198;52.382;9.020;2024-03-29T01:53:10;2.97;;;1.50;;
10305;SDS011;5198;52.382;9.020;2024-03-29T01:57:16;3.90;;;1.70;;
10305;SDS011;5198;52.382;9.020;2024-03-29T02:01:19;5.20;;;1.63;;
10305;SDS011;5198;52.382;9.020;2024-03-29T02:05:22;3.05;;;1.95;;
10305;SDS011;5198;52.382;9.020;2024-03-29T02:09:26;6.83;;;1.87;;
10305;SDS011;5198;52.382;9.020;2024-03-29T02:13:30;2.50;;;1.30;;
10305;SDS011;5198;52.382;9.020;2024-03-29T02:17:33;3.87;;;0.67;;
10305;SDS011;5198;52.382;9.020;2024-03-29T02:21:36;6.90;;;0.90;;
10305;SDS011;5198;52.382;9.020;2024-03-29T02:25:44;5.20;;;1.10;;
10305;SDS011;5198;52.382;9.020;2024-03-29T02:29:46;1.73;;;0.90;;
10305;SDS011;5198;52.382;9.020;2024-03-29T02:33:48;2.67;;;0.70;;
10305;SDS011;5198;52.382;9.020;2024-03-29T02:37:50;6.90;;;1.43;;
10305;SDS011;5198;52.382;9.020;2024-03-29T02:41:55;5.13;;;1.20;;
10305;SDS011;5198;52.382;9.020;2024-03-29T02:45:57;3.23;;;1.03;;
10305;SDS011;5198;52.382;9.020;2024-03-29T02:49:59;5.63;;;1.07;;
10305;SDS011;5198;52.382;9.020;2024-03-29T02:54:01;2.50;;;1.30;;
10305;SDS011;5198;52.382;9.020;2024-03-29T02:58:06;4.03;;;1.20;;
10305;SDS011;5198;52.382;9.020;2024-03-29T03:02:08;3.57;;;1.10;;
10305;SDS011;5198;52.382;9.020;2024-03-29T03:06:10;5.30;;;1.00;;
10305;SDS011;5198;52.382;9.020;2024-03-29T03:10:12;2.03;;;0.90;;
10305;SDS011;5198;52.382;9.020;2024-03-29T03:14:32;2.70;;;1.00;;
10305;SDS011;5198;52.382;9.020;2024-03-29T03:18:34;3.63;;;1.30;;
10305;SDS011;5198;52.382;9.020;2024-03-29T03:22:36;4.50;;;1.40;;
10305;SDS011;5198;52.382;9.020;2024-03-29T03:26:38;4.70;;;1.43;;
10305;SDS011;5198;52.382;9.020;2024-03-29T03:30:42;3.20;;;0.87;;
10305;SDS011;5198;52.382;9.020;2024-03-29T03:34:44;4.50;;;1.40;;
10305;SDS011;5198;52.382;9.020;2024-03-29T03:38:46;2.97;;;1.10;;
10305;SDS011;5198;52.382;9.020;2024-03-29T03:42:48;1.48;;;0.95;;
10305;SDS011;5198;52.382;9.020;2024-03-29T03:46:53;2.53;;;1.10;;
10305;SDS011;5198;52.382;9.020;2024-03-29T03:50:56;3.08;;;0.98;;
10305;SDS011;5198;52.382;9.020;2024-03-29T03:54:58;2.90;;;1.20;;
10305;SDS011;5198;52.382;9.020;2024-03-29T03:59:00;1.90;;;1.10;;
10305;SDS011;5198;52.382;9.020;2024-03-29T04:03:05;4.00;;;1.30;;
10305;SDS011;5198;52.382;9.020;2024-03-29T04:07:07;1.63;;;1.30;;
10305;SDS011;5198;52.382;9.020;2024-03-29T04:11:09;2.07;;;0.93;;
10305;SDS011;5198;52.382;9.020;2024-03-29T04:15:11;5.73;;;1.30;;
10305;SDS011;5198;52.382;9.020;2024-03-29T04:19:16;2.23;;;0.90;;
10305;SDS011;5198;52.382;9.020;2024-03-29T04:23:18;2.70;;;1.30;;
10305;SDS011;5198;52.382;9.020;2024-03-29T04:27:20;2.33;;;0.90;;
10305;SDS011;5198;52.382;9.020;2024-03-29T04:31:22;2.92;;;1.13;;
10305;SDS011;5198;52.382;9.020;2024-03-29T04:35:26;2.50;;;1.20;;
10305;SDS011;5198;52.382;9.020;2024-03-29T04:39:29;3.30;;;1.53;;
10305;SDS011;5198;52.382;9.020;2024-03-29T04:43:31;4.05;;;1.77;;
10305;SDS011;5198;52.382;9.020;2024-03-29T04:47:33;1.87;;;1.63;;
10305;SDS011;5198;52.382;9.020;2024-03-29T04:51:38;6.35;;;2.45;;
10305;SDS011;5198;52.382;9.020;2024-03-29T04:55:40;4.47;;;2.53;;
10305;SDS011;5198;52.382;9.020;2024-03-29T04:59:42;8.07;;;2.57;;
10305;SDS011;5198;52.382;9.020;2024-03-29T05:03:44;7.13;;;2.75;;
10305;SDS011;5198;52.382;9.020;2024-03-29T05:07:48;7.10;;;3.80;;
10305;SDS011;5198;52.382;9.020;2024-03-29T05:11:51;5.53;;;2.92;;
10305;SDS011;5198;52.382;9.020;2024-03-29T05:15:53;3.92;;;2.72;;
10305;SDS011;5198;52.382;9.020;2024-03-29T05:19:55;5.88;;;2.33;;
10305;SDS011;5198;52.382;9.020;2024-03-29T05:24:01;3.47;;;2.20;;
10305;SDS011;5198;52.382;9.020;2024-03-29T05:28:03;4.10;;;1.90;;
10305;SDS011;5198;52.382;9.020;2024-03-29T05:32:06;3.67;;;1.63;;
10305;SDS011;5198;52.382;9.020;2024-03-29T05:36:09;4.55;;;2.03;;
10305;SDS011;5198;52.382;9.020;2024-03-29T05:40:13;8.57;;;1.92;;
10305;SDS011;5198;52.382;9.020;2024-03-29T05:44:16;4.90;;;2.20;;
10305;SDS011;5198;52.382;9.020;2024-03-29T05:48:18;2.67;;;2.00;;
10305;SDS011;5198;52.382;9.020;2024-03-29T05:52:20;7.22;;;2.20;;
10305;SDS011;5198;52.382;9.020;2024-03-29T05:56:24;5.55;;;2.10;;
10305;SDS011;5198;52.382;9.020;2024-03-29T06:00:26;3.55;;;1.70;;
10305;SDS011;5198;52.382;9.020;2024-03-29T06:04:28;2.72;;;1.80;;
10305;SDS011;5198;52.382;9.020;2024-03-29T06:08:33;2.13;;;1.27;;
10305;SDS011;5198;52.382;9.020;2024-03-29T06:12:37;2.90;;;1.58;;
10305;SDS011;5198;52.382;9.020;2024-03-29T06:16:40;3.85;;;1.75;;
10305;SDS011;5198;52.382;9.020;2024-03-29T06:20:57;3.00;;;1.47;;
10305;SDS011;5198;52.382;9.020;2024-03-29T06:25:00;4.80;;;1.80;;
10305;SDS011;5198;52.382;9.020;2024-03-29T06:29:05;2.22;;;1.30;;
10305;SDS011;5198;52.382;9.020;2024-03-29T06:33:08;2.30;;;1.48;;
10305;SDS011;5198;52.382;9.020;2024-03-29T06:37:10;3.13;;;1.40;;
10305;SDS011;5198;52.382;9.020;2024-03-29T06:41:13;4.15;;;1.38;;
10305;SDS011;5198;52.382;9.020;2024-03-29T06:45:19;1.60;;;1.38;;
10305;SDS011;5198;52.382;9.020;2024-03-29T06:49:22;2.57;;;1.27;;
10305;SDS011;5198;52.382;9.020;2024-03-29T06:53:25;2.28;;;1.60;;
10305;SDS011;5198;52.382;9.020;2024-03-29T06:57:27;5.90;;;1.50;;
10305;SDS011;5198;52.382;9.020;2024-03-29T07:01:33;4.43;;;1.33;;
10305;SDS011;5198;52.382;9.020;2024-03-29T07:05:35;3.72;;;1.42;;
10305;SDS011;5198;52.382;9.020;2024-03-29T07:09:37;3.17;;;1.45;;
10305;SDS011;5198;52.382;9.020;2024-03-29T07:13:40;1.30;;;1.10;;
10305;SDS011;5198;52.382;9.020;2024-03-29T07:17:46;2.07;;;1.03;;
10305;SDS011;5198;52.382;9.020;2024-03-29T07:21:48;2.00;;;1.10;;
10305;SDS011;5198;52.382;9.020;2024-03-29T07:25:57;5.97;;;1.08;;
10305;SDS011;5198;52.382;9.020;2024-03-29T07:30:00;1.60;;;1.00;;
10305;SDS011;5198;52.382;9.020;2024-03-29T07:34:07;1.95;;;0.95;;
10305;SDS011;5198;52.382;9.020;2024-03-29T07:38:09;3.08;;;1.13;;
10305;SDS011;5198;52.382;9.020;2024-03-29T07:42:11;2.40;;;1.08;;
10305;SDS011;5198;52.382;9.020;2024-03-29T07:46:14;2.05;;;0.88;;
10305;SDS011;5198;52.382;9.020;2024-03-29T07:50:18;2.55;;;1.52;;
10305;SDS011;5198;52.382;9.020;2024-03-29T07:54:20;2.27;;;1.00;;
10305;SDS011;5198;52.382;9.020;2024-03-29T07:58:22;3.30;;;0.98;;
10305;SDS011;5198;52.382;9.020;2024-03-29T08:02:26;1.65;;;1.08;;
10305;SDS011;5198;52.382;9.020;2024-03-29T08:06:31;1.15;;;1.00;;
10305;SDS011;5198;52.382;9.020;2024-03-29T08:10:34;5.60;;;1.30;;
10305;SDS011;5198;52.382;9.020;2024-03-29T08:14:36;4.53;;;0.90;;
10305;SDS011;5198;52.382;9.020;2024-03-29T08:18:39;3.23;;;1.40;;
10305;SDS011;5198;52.382;9.020;2024-03-29T08:22:44;2.53;;;1.10;;
10305;SDS011;5198;52.382;9.020;2024-03-29T08:26:47;1.70;;;1.00;;
10305;SDS011;5198;52.382;9.020;2024-03-29T08:30:58;2.67;;;1.13;;
10305;SDS011;5198;52.382;9.020;2024-03-29T08:35:00;1.85;;;1.00;;
10305;SDS011;5198;52.382;9.020;2024-03-29T08:39:05;2.63;;;0.90;;
10305;SDS011;5198;52.382;9.020;2024-03-29T08:43:07;1.30;;;1.20;;
10305;SDS011;5198;52.382;9.020;2024-03-29T08:47:09;0.85;;;0.80;;
10305;SDS011;5198;52.382;9.020;2024-03-29T08:51:11;3.67;;;1.10;;
10305;SDS011;5198;52.382;9.020;2024-03-29T08:55:16;3.47;;;1.30;;
10305;SDS011;5198;52.382;9.020;2024-03-29T08:59:18;2.78;;;1.00;;
10305;SDS011;5198;52.382;9.020;2024-03-29T09:03:20;5.28;;;0.98;;
10305;SDS011;5198;52.382;9.020;2024-03-29T09:07:22;1.42;;;0.70;;
10305;SDS011;5198;52.382;9.020;2024-03-29T09:11:27;3.03;;;0.90;;
10305;SDS011;5198;52.382;9.020;2024-03-29T09:15:29;3.10;;;1.17;;
10305;SDS011;5198;52.382;9.020;2024-03-29T09:19:32;1.95;;;0.93;;
10305;SDS011;5198;52.382;9.020;2024-03-29T09:23:34;3.15;;;1.00;;
10305;SDS011;5198;52.382;9.020;2024-03-29T09:27:39;1.23;;;1.13;;
10305;SDS011;5198;52.382;9.020;2024-03-29T09:31:41;2.05;;;1.10;;
10305;SDS011;5198;52.382;9.020;2024-03-29T09:35:43;1.10;;;1.00;;
10305;SDS011;5198;52.382;9.020;2024-03-29T09:39:45;1.00;;;0.85;;
10305;SDS011;5198;52.382;9.020;2024-03-29T09:43:50;1.15;;;0.90;;
10305;SDS011;5198;52.382;9.020;2024-03-29T09:47:54;2.90;;;1.07;;
10305;SDS011;5198;52.382;9.020;2024-03-29T09:51:58;1.33;;;1.23;;
10305;SDS011;5198;52.382;9.020;2024-03-29T09:56:01;2.28;;;0.82;;
10305;SDS011;5198;52.382;9.020;2024-03-29T10:00:08;4.25;;;0.98;;
10305;SDS011;5198;52.382;9.020;2024-03-29T10:04:11;1.92;;;1.00;;
10305;SDS011;5198;52.382;9.020;2024-03-29T10:08:15;1.00;;;0.85;;
10305;SDS011;5198;52.382;9.020;2024-03-29T10:12:18;2.80;;;1.10;;
10305;SDS011;5198;52.382;9.020;2024-03-29T10:16:22;0.98;;;0.93;;
10305;SDS011;5198;52.382;9.020;2024-03-29T10:20:24;2.55;;;1.10;;
10305;SDS011;5198;52.382;9.020;2024-03-29T10:24:26;1.30;;;1.20;;
10305;SDS011;5198;52.382;9.020;2024-03-29T10:28:30;1.08;;;1.02;;
10305;SDS011;5198;52.382;9.020;2024-03-29T10:32:36;1.80;;;1.05;;
10305;SDS011;5198;52.382;9.020;2024-03-29T10:36:38;2.05;;;0.95;;
10305;SDS011;5198;52.382;9.020;2024-03-29T10:40:41;3.55;;;1.20;;
10305;SDS011;5198;52.382;9.020;2024-03-29T10:44:44;2.40;;;1.10;;
10305;SDS011;5198;52.382;9.020;2024-03-29T10:48:49;1.15;;;1.02;;
10305;SDS011;5198;52.382;9.020;2024-03-29T10:52:51;1.55;;;1.10;;
10305;SDS011;5198;52.382;9.020;2024-03-29T10:56:56;1.48;;;1.38;;
10305;SDS011;5198;52.382;9.020;2024-03-29T11:01:04;2.08;;;1.60;;
10305;SDS011;5198;52.382;9.020;2024-03-29T11:05:12;1.20;;;1.10;;
10305;SDS011;5198;52.382;9.020;2024-03-29T11:09:16;2.05;;;1.00;;
10305;SDS011;5198;52.382;9.020;2024-03-29T11:13:23;1.95;;;1.00;;
10305;SDS011;5198;52.382;9.020;2024-03-29T11:17:31;1.77;;;1.05;;
10305;SDS011;5198;52.382;9.020;2024-03-29T11:21:36;0.90;;;0.90;;
10305;SDS011;5198;52.382;9.020;2024-03-29T11:25:41;0.88;;;0.88;;
10305;SDS011;5198;52.382;9.020;2024-03-29T11:29:44;1.58;;;0.88;;
10305;SDS011;5198;52.382;9.020;2024-03-29T11:33:47;1.33;;;0.98;;
10305;SDS011;5198;52.382;9.020;2024-03-29T11:37:58;3.60;;;1.23;;
10305;SDS011;5198;52.382;9.020;2024-03-29T11:42:01;1.38;;;0.82;;
10305;SDS011;5198;52.382;9.020;2024-03-29T11:46:05;0.90;;;0.90;;
10305;SDS011;5198;52.382;9.020;2024-03-29T11:50:09;1.00;;;0.88;;
10305;SDS011;5198;52.382;9.020;2024-03-29T11:54:15;0.95;;;0.70;;
10305;SDS011;5198;52.382;9.020;2024-03-29T11:58:17;3.25;;;0.85;;
10305;SDS011;5198;52.382;9.020;2024-03-29T12:02:20;1.27;;;0.88;;
10305;SDS011;5198;52.382;9.020;2024-03-29T12:06:22;0.98;;;0.88;;
10305;SDS011;5198;52.382;9.020;2024-03-29T12:10:29;3.78;;;0.77;;
10305;SDS011;5198;52.382;9.020;2024-03-29T12:14:31;0.98;;;0.90;;
10305;SDS011;5198;52.382;9.020;2024-03-29T12:18:34;1.58;;;0.80;;
10305;SDS011;5198;52.382;9.020;2024-03-29T12:22:37;2.10;;;1.17;;
10305;SDS011;5198;52.382;9.020;2024-03-29T12:26:43;1.23;;;0.93;;
10305;SDS011;5198;52.382;9.020;2024-03-29T12:30:45;1.20;;;1.10;;
10305;SDS011;5198;52.382;9.020;2024-03-29T12:34:49;0.90;;;0.90;;
10305;SDS011;5198;52.382;9.020;2024-03-29T12:38:56;1.10;;;0.85;;
10305;SDS011;5198;52.382;9.020;2024-03-29T12:43:04;2.00;;;1.38;;
10305;SDS011;5198;52.382;9.020;2024-03-29T12:47:07;1.15;;;1.05;;
10305;SDS011;5198;52.382;9.020;2024-03-29T12:51:10;2.72;;;1.10;;
10305;SDS011;5198;52.382;9.020;2024-03-29T12:55:14;2.20;;;1.00;;
10305;SDS011;5198;52.382;9.020;2024-03-29T12:59:19;1.00;;;0.85;;
10305;SDS011;5198;52.382;9.020;2024-03-29T13:03:22;2.70;;;1.40;;
10305;SDS011;5198;52.382;9.020;2024-03-29T13:07:24;0.80;;;0.80;;
10305;SDS011;5198;52.382;9.020;2024-03-29T13:11:26;1.33;;;1.02;;
10305;SDS011;5198;52.382;9.020;2024-03-29T13:15:32;1.45;;;1.20;;
10305;SDS011;5198;52.382;9.020;2024-03-29T13:19:37;2.30;;;1.90;;
10305;SDS011;5198;52.382;9.020;2024-03-29T13:23:39;2.45;;;1.63;;
10305;SDS011;5198;52.382;9.020;2024-03-29T13:27:41;1.30;;;1.20;;
10305;SDS011;5198;52.382;9.020;2024-03-29T13:31:46;2.38;;;1.63;;
10305;SDS011;5198;52.382;9.020;2024-03-29T13:35:52;3.72;;;2.25;;
10305;SDS011;5198;52.382;9.020;2024-03-29T13:39:55;3.08;;;2.05;;
10305;SDS011;5198;52.382;9.020;2024-03-29T13:43:57;1.67;;;1.48;;
10305;SDS011;5198;52.382;9.020;2024-03-29T13:48:02;1.85;;;0.80;;
10305;SDS011;5198;52.382;9.020;2024-03-29T13:52:05;0.77;;;0.75;;
10305;SDS011;5198;52.382;9.020;2024-03-29T13:56:07;1.10;;;1.00;;
10305;SDS011;5198;52.382;9.020;2024-03-29T14:00:10;1.45;;;0.95;;
10305;SDS011;5198;52.382;9.020;2024-03-29T14:04:17;0.77;;;0.77;;
10305;SDS011;5198;52.382;9.020;2024-03-29T14:08:19;1.35;;;0.90;;
10305;SDS011;5198;52.382;9.020;2024-03-29T14:12:22;1.88;;;0.90;;
10305;SDS011;5198;52.382;9.020;2024-03-29T14:16:25;1.50;;;1.00;;
10305;SDS011;5198;52.382;9.020;2024-03-29T14:20:30;0.90;;;0.90;;
10305;SDS011;5198;52.382;9.020;2024-03-29T14:24:32;1.55;;;1.17;;
10305;SDS011;5198;52.382;9.020;2024-03-29T14:28:37;1.35;;;1.25;;
10305;SDS011;5198;52.382;9.020;2024-03-29T14:32:39;2.85;;;2.00;;
10305;SDS011;5198;52.382;9.020;2024-03-29T14:36:45;2.42;;;1.60;;
10305;SDS011;5198;52.382;9.020;2024-03-29T14:40:47;1.10;;;1.00;;
10305;SDS011;5198;52.382;9.020;2024-03-29T14:44:50;1.20;;;1.10;;
10305;SDS011;5198;52.382;9.020;2024-03-29T14:48:52;1.05;;;1.00;;
10305;SDS011;5198;52.382;9.020;2024-03-29T14:52:57;1.25;;;0.90;;
10305;SDS011;5198;52.382;9.020;2024-03-29T14:56:59;1.08;;;1.05;;
10305;SDS011;5198;52.382;9.020;2024-03-29T15:01:03;1.20;;;1.05;;
10305;SDS011;5198;52.382;9.020;2024-03-29T15:05:06;2.00;;;1.30;;
10305;SDS011;5198;52.382;9.020;2024-03-29T15:09:11;1.55;;;1.10;;
10305;SDS011;5198;52.382;9.020;2024-03-29T15:13:13;0.90;;;0.77;;
10305;SDS011;5198;52.382;9.020;2024-03-29T15:17:15;1.92;;;1.05;;
10305;SDS011;5198;52.382;9.020;2024-03-29T15:21:17;3.08;;;0.93;;
10305;SDS011;5198;52.382;9.020;2024-03-29T15:25:22;1.20;;;1.10;;
10305;SDS011;5198;52.382;9.020;2024-03-29T15:29:24;4.75;;;1.73;;
10305;SDS011;5198;52.382;9.020;2024-03-29T15:33:26;1.50;;;1.40;;
10305;SDS011;5198;52.382;9.020;2024-03-29T15:37:28;3.75;;;1.20;;
10305;SDS011;5198;52.382;9.020;2024-03-29T15:41:34;2.05;;;1.30;;
10305;SDS011;5198;52.382;9.020;2024-03-29T15:45:37;2.55;;;1.20;;
10305;SDS011;5198;52.382;9.020;2024-03-29T15:49:40;2.03;;;1.10;;
10305;SDS011;5198;52.382;9.020;2024-03-29T15:53:43;4.03;;;1.35;;
10305;SDS011;5198;52.382;9.020;2024-03-29T15:57:48;1.50;;;1.10;;
10305;SDS011;5198;52.382;9.020;2024-03-29T16:01:51;1.25;;;1.05;;
10305;SDS011;5198;52.382;9.020;2024-03-29T16:05:54;0.90;;;0.90;;
10305;SDS011;5198;52.382;9.020;2024-03-29T16:09:57;2.28;;;1.50;;
10305;SDS011;5198;52.382;9.020;2024-03-29T16:14:07;2.15;;;1.40;;
10305;SDS011;5198;52.382;9.020;2024-03-29T16:18:09;1.60;;;1.50;;
10305;SDS011;5198;52.382;9.020;2024-03-29T16:22:11;1.63;;;1.25;;
10305;SDS011;5198;52.382;9.020;2024-03-29T16:26:13;1.00;;;0.90;;
10305;SDS011;5198;52.382;9.020;2024-03-29T16:30:19;2.08;;;0.95;;
10305;SDS011;5198;52.382;9.020;2024-03-29T16:34:25;1.13;;;1.00;;
10305;SDS011;5198;52.382;9.020;2024-03-29T16:38:27;0.82;;;0.82;;
10305;SDS011;5198;52.382;9.020;2024-03-29T16:42:29;0.88;;;0.82;;
10305;SDS011;5198;52.382;9.020;2024-03-29T16:46:34;3.22;;;0.88;;
10305;SDS011;5198;52.382;9.020;2024-03-29T16:50:36;1.88;;;1.00;;
10305;SDS011;5198;52.382;9.020;2024-03-29T16:54:38;1.00;;;0.90;;
10305;SDS011;5198;52.382;9.020;2024-03-29T16:58:41;0.95;;;0.80;;
10305;SDS011;5198;52.382;9.020;2024-03-29T17:02:47;2.63;;;1.40;;
10305;SDS011;5198;52.382;9.020;2024-03-29T17:06:52;1.25;;;1.10;;
10305;SDS011;5198;52.382;9.020;2024-03-29T17:10:55;2.25;;;1.27;;
10305;SDS011;5198;52.382;9.020;2024-03-29T17:14:58;1.63;;;1.17;;
10305;SDS011;5198;52.382;9.020;2024-03-29T17:19:04;2.08;;;1.10;;
10305;SDS011;5198;52.382;9.020;2024-03-29T17:23:08;1.35;;;0.90;;
10305;SDS011;5198;52.382;9.020;2024-03-29T17:27:10;1.20;;;1.10;;
10305;SDS011;5198;52.382;9.020;2024-03-29T17:31:12;1.20;;;1.10;;
10305;SDS011;5198;52.382;9.020;2024-03-29T17:35:17;1.95;;;1.05;;
10305;SDS011;5198;52.382;9.020;2024-03-29T17:39:19;1.50;;;1.10;;
10305;SDS011;5198;52.382;9.020;2024-03-29T17:43:21;1.45;;;1.35;;
10305;SDS011;5198;52.382;9.020;2024-03-29T17:47:23;1.35;;;1.15;;
10305;SDS011;5198;52.382;9.020;2024-03-29T17:51:28;1.20;;;1.08;;
10305;SDS011;5198;52.382;9.020;2024-03-29T17:55:30;1.67;;;1.02;;
10305;SDS011;5198;52.382;9.020;2024-03-29T17:59:32;1.42;;;1.25;;
10305;SDS011;5198;52.382;9.020;2024-03-29T18:03:36;1.30;;;1.20;;
10305;SDS011;5198;52.382;9.020;2024-03-29T18:07:42;1.27;;;1.05;;
10305;SDS011;5198;52.382;9.020;2024-03-29T18:11:45;1.25;;;1.15;;
10305;SDS011;5198;52.382;9.020;2024-03-29T18:15:48;1.30;;;1.20;;
10305;SDS011;5198;52.382;9.020;2024-03-29T18:19:52;1.30;;;1.20;;
10305;SDS011;5198;52.382;9.020;2024-03-29T18:23:56;1.58;;;1.40;;
10305;SDS011;5198;52.382;9.020;2024-03-29T18:28:00;1.55;;;1.25;;
10305;SDS011;5198;52.382;9.020;2024-03-29T18:32:05;4.20;;;1.08;;
10305;SDS011;5198;52.382;9.020;2024-03-29T18:36:08;1.27;;;1.17;;
10305;SDS011;5198;52.382;9.020;2024-03-29T18:40:14;1.27;;;1.15;;
10305;SDS011;5198;52.382;9.020;2024-03-29T18:44:16;1.13;;;1.10;;
10305;SDS011;5198;52.382;9.020;2024-03-29T18:48:19;1.55;;;1.30;;
10305;SDS011;5198;52.382;9.020;2024-03-29T18:52:22;1.95;;;1.63;;
10305;SDS011;5198;52.382;9.020;2024-03-29T18:56:27;1.80;;;1.50;;
10305;SDS011;5198;52.382;9.020;2024-03-29T19:00:30;2.92;;;1.73;;
10305;SDS011;5198;52.382;9.020;2024-03-29T19:04:32;2.08;;;1.38;;
10305;SDS011;5198;52.382;9.020;2024-03-29T19:08:34;1.20;;;1.10;;
10305;SDS011;5198;52.382;9.020;2024-03-29T19:12:39;1.15;;;1.05;;
10305;SDS011;5198;52.382;9.020;2024-03-29T19:16:42;1.40;;;1.25;;
10305;SDS011;5198;52.382;9.020;2024-03-29T19:20:44;1.30;;;1.20;;
10305;SDS011;5198;52.382;9.020;2024-03-29T19:24:46;2.05;;;1.58;;
10305;SDS011;5198;52.382;9.020;2024-03-29T19:28:51;1.48;;;1.38;;
10305;SDS011;5198;52.382;9.020;2024-03-29T19:32:56;1.65;;;1.55;;
10305;SDS011;5198;52.382;9.020;2024-03-29T19:36:59;1.58;;;1.48;;
10305;SDS011;5198;52.382;9.020;2024-03-29T19:41:01;2.03;;;1.50;;
10305;SDS011;5198;52.382;9.020;2024-03-29T19:45:08;2.55;;;1.90;;
10305;SDS011;5198;52.382;9.020;2024-03-29T19:49:12;1.75;;;1.45;;
10305;SDS011;5198;52.382;9.020;2024-03-29T19:53:17;1.58;;;1.48;;
10305;SDS011;5198;52.382;9.020;2024-03-29T19:57:20;3.70;;;1.48;;
10305;SDS011;5198;52.382;9.020;2024-03-29T20:01:26;5.10;;;1.58;;
10305;SDS011;5198;52.382;9.020;2024-03-29T20:05:29;1.95;;;1.30;;
10305;SDS011;5198;52.382;9.020;2024-03-29T20:09:34;2.30;;;1.70;;
10305;SDS011;5198;52.382;9.020;2024-03-29T20:13:38;2.75;;;1.60;;
10305;SDS011;5198;52.382;9.020;2024-03-29T20:17:44;1.48;;;1.38;;
10305;SDS011;5198;52.382;9.020;2024-03-29T20:21:46;1.40;;;1.30;;
10305;SDS011;5198;52.382;9.020;2024-03-29T20:25:49;1.45;;;1.35;;
10305;SDS011;5198;52.382;9.020;2024-03-29T20:29:52;1.50;;;1.40;;
10305;SDS011;5198;52.382;9.020;2024-03-29T20:33:58;2.00;;;1.45;;
10305;SDS011;5198;52.382;9.020;2024-03-29T20:38:00;1.60;;;1.50;;
10305;SDS011;5198;52.382;9.020;2024-03-29T20:42:03;1.70;;;1.60;;
10305;SDS011;5198;52.382;9.020;2024-03-29T20:46:06;1.67;;;1.58;;
10305;SDS011;5198;52.382;9.020;2024-03-29T20:50:12;3.53;;;1.50;;
10305;SDS011;5198;52.382;9.020;2024-03-29T20:54:16;1.85;;;1.50;;
10305;SDS011;5198;52.382;9.020;2024-03-29T20:58:19;2.22;;;1.80;;
10305;SDS011;5198;52.382;9.020;2024-03-29T21:02:21;2.05;;;1.80;;
10305;SDS011;5198;52.382;9.020;2024-03-29T21:06:42;2.33;;;1.98;;
10305;SDS011;5198;52.382;9.020;2024-03-29T21:10:45;2.13;;;1.95;;
10305;SDS011;5198;52.382;9.020;2024-03-29T21:14:52;1.83;;;1.73;;
10305;SDS011;5198;52.382;9.020;2024-03-29T21:18:56;1.85;;;1.65;;
10305;SDS011;5198;52.382;9.020;2024-03-29T21:23:01;2.00;;;1.80;;
10305;SDS011;5198;52.382;9.020;2024-03-29T21:27:04;2.38;;;2.08;;
10305;SDS011;5198;52.382;9.020;2024-03-29T21:31:06;1.95;;;1.75;;
10305;SDS011;5198;52.382;9.020;2024-03-29T21:35:10;1.92;;;1.77;;
10305;SDS011;5198;52.382;9.020;2024-03-29T21:39:17;1.80;;;1.70;;
10305;SDS011;5198;52.382;9.020;2024-03-29T21:43:19;2.33;;;2.00;;
10305;SDS011;5198;52.382;9.020;2024-03-29T21:47:39;2.38;;;1.80;;
10305;SDS011;5198;52.382;9.020;2024-03-29T21:51:54;2.00;;;1.83;;
10305;SDS011;5198;52.382;9.020;2024-03-29T21:56:01;1.90;;;1.80;;
10305;SDS011;5198;52.382;9.020;2024-03-29T22:00:05;4.28;;;2.08;;
10305;SDS011;5198;52.382;9.020;2024-03-29T22:04:10;2.00;;;1.65;;
10305;SDS011;5198;52.382;9.020;2024-03-29T22:08:15;2.35;;;1.80;;
10305;SDS011;5198;52.382;9.020;2024-03-29T22:12:24;2.25;;;1.90;;
10305;SDS011;5198;52.382;9.020;2024-03-29T22:16:27;2.67;;;2.00;;
10305;SDS011;5198;52.382;9.020;2024-03-29T22:20:31;2.60;;;2.17;;
10305;SDS011;5198;52.382;9.020;2024-03-29T22:24:33;2.78;;;2.15;;
10305;SDS011;5198;52.382;9.020;2024-03-29T22:28:39;2.40;;;2.20;;
10305;SDS011;5198;52.382;9.020;2024-03-29T22:32:42;5.90;;;2.60;;
10305;SDS011;5198;52.382;9.020;2024-03-29T22:36:48;5.63;;;3.15;;
10305;SDS011;5198;52.382;9.020;2024-03-29T22:40:52;3.45;;;2.35;;
10305;SDS011;5198;52.382;9.020;2024-03-29T22:45:01;4.45;;;2.40;;
10305;SDS011;5198;52.382;9.020;2024-03-29T22:49:04;2.20;;;2.00;;
10305;SDS011;5198;52.382;9.020;2024-03-29T22:53:08;2.42;;;2.22;;
10305;SDS011;5198;52.382;9.020;2024-03-29T22:57:11;3.10;;;2.10;;
10305;SDS011;5198;52.382;9.020;2024-03-29T23:01:16;2.63;;;2.42;;
10305;SDS011;5198;52.382;9.020;2024-03-29T23:05:18;2.65;;;2.45;;
10305;SDS011;5198;52.382;9.020;2024-03-29T23:09:21;2.58;;;1.85;;
10305;SDS011;5198;52.382;9.020;2024-03-29T23:13:23;2.35;;;2.15;;
10305;SDS011;5198;52.382;9.020;2024-03-29T23:17:29;3.05;;;2.22;;
10305;SDS011;5198;52.382;9.020;2024-03-29T23:21:31;2.47;;;2.28;;
10305;SDS011;5198;52.382;9.020;2024-03-29T23:25:34;2.63;;;2.40;;
10305;SDS011;5198;52.382;9.020;2024-03-29T23:29:37;3.40;;;2.50;;
10305;SDS011;5198;52.382;9.020;2024-03-29T23:33:42;2.83;;;2.63;;
10305;SDS011;5198;52.382;9.020;2024-03-29T23:37:45;2.95;;;2.47;;
10305;SDS011;5198;52.382;9.020;2024-03-29T23:41:48;2.60;;;2.25;;
10305;SDS011;5198;52.382;9.020;2024-03-29T23:45:57;4.45;;;2.28;;
10305;SDS011;5198;52.382;9.020;2024-03-29T23:50:02;2.90;;;2.60;;
10305;SDS011;5198;52.382;9.020;2024-03-29T23:54:04;2.80;;;2.30;;
10305;SDS011;5198;52.382;9.020;2024-03-29T23:58:08;2.25;;;2.05;;
